sensor_id;sensor_type;location;lat;lon;timestamp;pressure;altitude;pressure_sealevel;temperature;humidity
13968;BME280;39536;52.198;9.920;2023-12-20T00:01:40;100294.53;;;7.91;100.00
13968;BME280;39536;52.198;9.920;2023-12-20T00:04:06;100297.34;;;7.81;100.00
13968;BME280;39536;52.198;9.920;2023-12-20T00:06:33;100297.72;;;7.68;100.00
13968;BME280;39536;52.198;9.920;2023-12-20T00:08:59;100296.63;;;7.76;100.00
13968;BME280;39536;52.198;9.920;2023-12-20T00:11:26;100310.63;;;7.69;100.00
13968;BME280;39536;52.198;9.920;2023-12-20T00:13:54;100296.63;;;7.76;100.00
13968;BME280;39536;52.198;9.920;2023-12-20T00:16:20;100295.06;;;7.69;100.00
13968;BME280;39536;52.198;9.920;2023-12-20T00:18:47;100302.53;;;7.83;100.00
13968;BME280;39536;52.198;9.920;2023-12-20T00:21:13;100314.34;;;7.59;100.00
13968;BME280;39536;52.198;9.920;2023-12-20T00:23:40;100306.47;;;7.62;100.00
13968;BME280;39536;52.198;9.920;2023-12-20T00:26:06;100311.31;;;7.42;100.00
13968;BME280;39536;52.198;9.920;2023-12-20T00:28:33;100306.81;;;7.48;100.00
13968;BME280;39536;52.198;9.920;2023-12-20T00:31:01;100315.41;;;7.50;100.00
13968;BME280;39536;52.198;9.920;2023-12-20T00:33:27;100305.84;;;7.52;100.00
13968;BME280;39536;52.198;9.920;2023-12-20T00:35:54;100309.28;;;7.53;100.00
13968;BME280;39536;52.198;9.920;2023-12-20T00:38:20;100312.78;;;7.52;100.00
13968;BME280;39536;52.198;9.920;2023-12-20T00:40:48;100324.19;;;7.45;100.00
13968;BME280;39536;52.198;9.920;2023-12-20T00:43:15;100329.66;;;7.31;100.00
13968;BME280;39536;52.198;9.920;2023-12-20T00:45:41;100322.16;;;7.20;100.00
13968;BME280;39536;52.198;9.920;2023-12-20T00:48:09;100336.94;;;7.15;100.00
13968;BME280;39536;52.198;9.920;2023-12-20T00:50:36;100337.81;;;7.14;100.00
13968;BME280;39536;52.198;9.920;2023-12-20T00:53:02;100337.81;;;7.14;100.00
13968;BME280;39536;52.198;9.920;2023-12-20T00:55:29;100340.38;;;7.15;100.00
13968;BME280;39536;52.198;9.920;2023-12-20T00:57:55;100318.16;;;7.05;100.00
13968;BME280;39536;52.198;9.920;2023-12-20T01:00:22;100324.28;;;7.01;100.00
13968;BME280;39536;52.198;9.920;2023-12-20T01:02:48;100321.72;;;7.00;100.00
13968;BME280;39536;52.198;9.920;2023-12-20T01:05:18;100317.53;;;6.94;100.00
13968;BME280;39536;52.198;9.920;2023-12-20T01:07:44;100345.22;;;6.90;100.00
13968;BME280;39536;52.198;9.920;2023-12-20T01:10:11;100328.78;;;6.93;100.00
13968;BME280;39536;52.198;9.920;2023-12-20T01:12:37;100297.94;;;6.82;100.00
13968;BME280;39536;52.198;9.920;2023-12-20T01:15:04;100306.50;;;6.86;100.00
13968;BME280;39536;52.198;9.920;2023-12-20T01:17:31;100307.28;;;6.88;100.00
13968;BME280;39536;52.198;9.920;2023-12-20T01:19:58;100323.66;;;6.88;100.00
13968;BME280;39536;52.198;9.920;2023-12-20T01:22:25;100306.31;;;6.93;100.00
13968;BME280;39536;52.198;9.920;2023-12-20T01:24:52;100308.94;;;6.92;100.00
13968;BME280;39536;52.198;9.920;2023-12-20T01:27:18;100313.56;;;6.78;100.00
13968;BME280;39536;52.198;9.920;2023-12-20T01:29:45;100316.31;;;6.70;100.00
13968;BME280;39536;52.198;9.920;2023-12-20T01:32:11;100314.63;;;6.67;100.00
13968;BME280;39536;52.198;9.920;2023-12-20T01:34:38;100306.94;;;6.64;100.00
13968;BME280;39536;52.198;9.920;2023-12-20T01:37:04;100309.59;;;6.60;100.00
13968;BME280;39536;52.198;9.920;2023-12-20T01:39:32;100315.78;;;6.54;100.00
13968;BME280;39536;52.198;9.920;2023-12-20T01:41:59;100311.50;;;6.52;100.00
13968;BME280;39536;52.198;9.920;2023-12-20T01:44:25;100312.38;;;6.51;100.00
13968;BME280;39536;52.198;9.920;2023-12-20T01:46:52;100301.28;;;6.44;100.00
13968;BME280;39536;52.198;9.920;2023-12-20T01:49:18;100323.59;;;6.50;100.00
13968;BME280;39536;52.198;9.920;2023-12-20T01:51:46;100315.84;;;6.51;100.00
13968;BME280;39536;52.198;9.920;2023-12-20T01:54:13;100327.03;;;6.52;100.00
13968;BME280;39536;52.198;9.920;2023-12-20T01:56:41;100323.78;;;6.42;100.00
13968;BME280;39536;52.198;9.920;2023-12-20T01:59:08;100321.00;;;6.51;100.00
13968;BME280;39536;52.198;9.920;2023-12-20T02:01:35;100309.03;;;6.45;100.00
13968;BME280;39536;52.198;9.920;2023-12-20T02:04:02;100323.94;;;6.31;100.00
13968;BME280;39536;52.198;9.920;2023-12-20T02:06:30;100328.22;;;6.32;100.00
13968;BME280;39536;52.198;9.920;2023-12-20T02:08:57;100328.22;;;6.32;100.00
13968;BME280;39536;52.198;9.920;2023-12-20T02:11:23;100332.28;;;6.47;100.00
13968;BME280;39536;52.198;9.920;2023-12-20T02:13:53;100327.94;;;6.49;100.00
13968;BME280;39536;52.198;9.920;2023-12-20T02:16:19;100337.56;;;6.42;100.00
13968;BME280;39536;52.198;9.920;2023-12-20T02:18:46;100336.47;;;6.54;100.00
13968;BME280;39536;52.198;9.920;2023-12-20T02:21:12;100338.09;;;6.58;100.00
13968;BME280;39536;52.198;9.920;2023-12-20T02:23:40;100327.56;;;6.67;100.00
13968;BME280;39536;52.198;9.920;2023-12-20T02:26:07;100332.94;;;6.58;100.00
13968;BME280;39536;52.198;9.920;2023-12-20T02:28:33;100335.41;;;6.64;100.00
13968;BME280;39536;52.198;9.920;2023-12-20T02:31:20;100335.53;;;6.57;100.00
13968;BME280;39536;52.198;9.920;2023-12-20T02:33:47;100324.63;;;6.41;100.00
13968;BME280;39536;52.198;9.920;2023-12-20T02:36:13;100318.66;;;6.39;100.00
13968;BME280;39536;52.198;9.920;2023-12-20T02:38:41;100312.59;;;6.40;100.00
13968;BME280;39536;52.198;9.920;2023-12-20T02:41:07;100299.38;;;6.54;100.00
13968;BME280;39536;52.198;9.920;2023-12-20T02:43:34;100294.72;;;6.71;100.00
13968;BME280;39536;52.198;9.920;2023-12-20T02:46:00;100301.56;;;6.74;100.00
13968;BME280;39536;52.198;9.920;2023-12-20T02:48:27;100309.59;;;6.61;100.00
13968;BME280;39536;52.198;9.920;2023-12-20T02:50:54;100320.16;;;6.49;100.00
13968;BME280;39536;52.198;9.920;2023-12-20T02:53:21;100307.19;;;6.51;100.00
13968;BME280;39536;52.198;9.920;2023-12-20T02:55:48;100302.25;;;6.40;100.00
13968;BME280;39536;52.198;9.920;2023-12-20T02:58:15;100297.84;;;6.45;100.00
13968;BME280;39536;52.198;9.920;2023-12-20T03:00:43;100284.84;;;6.48;100.00
13968;BME280;39536;52.198;9.920;2023-12-20T03:03:09;100293.47;;;6.47;100.00
13968;BME280;39536;52.198;9.920;2023-12-20T03:05:36;100288.63;;;6.29;100.00
13968;BME280;39536;52.198;9.920;2023-12-20T03:08:02;100299.22;;;6.16;100.00
13968;BME280;39536;52.198;9.920;2023-12-20T03:10:29;100286.91;;;6.29;100.00
13968;BME280;39536;52.198;9.920;2023-12-20T03:12:56;100292.13;;;6.26;100.00
13968;BME280;39536;52.198;9.920;2023-12-20T03:15:23;100283.34;;;6.35;100.00
13968;BME280;39536;52.198;9.920;2023-12-20T03:17:50;100295.38;;;6.37;100.00
13968;BME280;39536;52.198;9.920;2023-12-20T03:20:16;100279.19;;;6.26;100.00
13968;BME280;39536;52.198;9.920;2023-12-20T03:22:43;100280.16;;;6.22;100.00
13968;BME280;39536;52.198;9.920;2023-12-20T03:25:09;100283.47;;;6.30;100.00
13968;BME280;39536;52.198;9.920;2023-12-20T03:27:37;100271.16;;;6.41;100.00
13968;BME280;39536;52.198;9.920;2023-12-20T03:30:06;100267.38;;;6.13;100.00
13968;BME280;39536;52.198;9.920;2023-12-20T03:32:32;100251.56;;;6.30;100.00
13968;BME280;39536;52.198;9.920;2023-12-20T03:34:59;100254.91;;;6.35;100.00
13968;BME280;39536;52.198;9.920;2023-12-20T03:37:25;100252.56;;;6.22;100.00
13968;BME280;39536;52.198;9.920;2023-12-20T03:39:52;100237.81;;;6.26;100.00
13968;BME280;39536;52.198;9.920;2023-12-20T03:42:18;100226.97;;;6.07;100.00
13968;BME280;39536;52.198;9.920;2023-12-20T03:44:45;100227.53;;;6.23;100.00
13968;BME280;39536;52.198;9.920;2023-12-20T03:47:13;100234.31;;;6.29;100.00
13968;BME280;39536;52.198;9.920;2023-12-20T03:49:39;100230.13;;;6.23;100.00
13968;BME280;39536;52.198;9.920;2023-12-20T03:52:06;100225.66;;;6.33;100.00
13968;BME280;39536;52.198;9.920;2023-12-20T03:54:33;100214.41;;;6.32;100.00
13968;BME280;39536;52.198;9.920;2023-12-20T03:56:59;100233.72;;;6.16;100.00
13968;BME280;39536;52.198;9.920;2023-12-20T03:59:26;100235.41;;;6.18;100.00
13968;BME280;39536;52.198;9.920;2023-12-20T04:01:52;100236.91;;;6.30;100.00
13968;BME280;39536;52.198;9.920;2023-12-20T04:04:20;100230.91;;;6.28;100.00
13968;BME280;39536;52.198;9.920;2023-12-20T04:06:47;100232.53;;;6.32;100.00
13968;BME280;39536;52.198;9.920;2023-12-20T04:09:13;100236.72;;;6.38;100.00
13968;BME280;39536;52.198;9.920;2023-12-20T04:11:40;100230.84;;;6.31;100.00
13968;BME280;39536;52.198;9.920;2023-12-20T04:14:06;100230.94;;;6.27;100.00
13968;BME280;39536;52.198;9.920;2023-12-20T04:16:33;100228.03;;;6.42;100.00
13968;BME280;39536;52.198;9.920;2023-12-20T04:19:00;100221.06;;;6.45;100.00
13968;BME280;39536;52.198;9.920;2023-12-20T04:21:27;100252.44;;;6.29;100.00
13968;BME280;39536;52.198;9.920;2023-12-20T04:23:54;100200.56;;;6.35;100.00
13968;BME280;39536;52.198;9.920;2023-12-20T04:26:21;100234.16;;;6.38;100.00
13968;BME280;39536;52.198;9.920;2023-12-20T04:28:47;100216.94;;;6.35;100.00
13968;BME280;39536;52.198;9.920;2023-12-20T04:31:14;100216.75;;;6.44;100.00
13968;BME280;39536;52.198;9.920;2023-12-20T04:33:40;100224.44;;;6.49;100.00
13968;BME280;39536;52.198;9.920;2023-12-20T04:36:07;100227.84;;;6.51;100.00
13968;BME280;39536;52.198;9.920;2023-12-20T04:38:35;100225.28;;;6.50;100.00
13968;BME280;39536;52.198;9.920;2023-12-20T04:41:02;100232.09;;;6.54;100.00
13968;BME280;39536;52.198;9.920;2023-12-20T04:43:29;100218.34;;;6.52;100.00
13968;BME280;39536;52.198;9.920;2023-12-20T04:45:55;100221.91;;;6.46;100.00
13968;BME280;39536;52.198;9.920;2023-12-20T04:48:22;100219.34;;;6.44;100.00
13968;BME280;39536;52.198;9.920;2023-12-20T04:50:48;100209.75;;;6.50;100.00
13968;BME280;39536;52.198;9.920;2023-12-20T04:53:15;100211.38;;;6.55;100.00
13968;BME280;39536;52.198;9.920;2023-12-20T04:55:43;100209.88;;;6.43;100.00
13968;BME280;39536;52.198;9.920;2023-12-20T04:58:09;100207.28;;;6.45;100.00
13968;BME280;39536;52.198;9.920;2023-12-20T05:00:36;100201.97;;;6.51;100.00
13968;BME280;39536;52.198;9.920;2023-12-20T05:03:03;100202.97;;;6.45;100.00
13968;BME280;39536;52.198;9.920;2023-12-20T05:05:30;100205.34;;;6.55;100.00
13968;BME280;39536;52.198;9.920;2023-12-20T05:07:57;100215.03;;;6.45;100.00
13968;BME280;39536;52.198;9.920;2023-12-20T05:10:23;100210.72;;;6.45;100.00
13968;BME280;39536;52.198;9.920;2023-12-20T05:12:51;100212.53;;;6.42;100.00
13968;BME280;39536;52.198;9.920;2023-12-20T05:15:18;100220.38;;;6.37;100.00
13968;BME280;39536;52.198;9.920;2023-12-20T05:17:44;100214.16;;;6.44;100.00
13968;BME280;39536;52.198;9.920;2023-12-20T05:20:11;100210.78;;;6.42;100.00
13968;BME280;39536;52.198;9.920;2023-12-20T05:22:37;100210.53;;;6.53;100.00
13968;BME280;39536;52.198;9.920;2023-12-20T05:25:05;100198.50;;;6.51;100.00
13968;BME280;39536;52.198;9.920;2023-12-20T05:27:31;100209.63;;;6.56;100.00
13968;BME280;39536;52.198;9.920;2023-12-20T05:29:59;100209.63;;;6.56;100.00
13968;BME280;39536;52.198;9.920;2023-12-20T05:32:26;100204.38;;;6.59;100.00
13968;BME280;39536;52.198;9.920;2023-12-20T05:34:52;100209.44;;;6.65;100.00
13968;BME280;39536;52.198;9.920;2023-12-20T05:37:19;100200.69;;;6.70;100.00
13968;BME280;39536;52.198;9.920;2023-12-20T05:39:45;100193.97;;;6.62;100.00
13968;BME280;39536;52.198;9.920;2023-12-20T05:42:12;100199.84;;;6.68;100.00
13968;BME280;39536;52.198;9.920;2023-12-20T05:44:38;100195.88;;;6.54;100.00
13968;BME280;39536;52.198;9.920;2023-12-20T05:47:06;100196.81;;;6.51;100.00
13968;BME280;39536;52.198;9.920;2023-12-20T05:49:33;100194.75;;;6.65;100.00
13968;BME280;39536;52.198;9.920;2023-12-20T05:51:59;100195.03;;;6.53;100.00
13968;BME280;39536;52.198;9.920;2023-12-20T05:54:26;100207.94;;;6.55;100.00
13968;BME280;39536;52.198;9.920;2023-12-20T05:56:52;100205.25;;;6.59;100.00
13968;BME280;39536;52.198;9.920;2023-12-20T05:59:19;100208.81;;;6.54;100.00
13968;BME280;39536;52.198;9.920;2023-12-20T06:01:45;100204.22;;;6.66;100.00
13968;BME280;39536;52.198;9.920;2023-12-20T06:04:13;100210.47;;;6.58;100.00
13968;BME280;39536;52.198;9.920;2023-12-20T06:06:43;100203.69;;;6.51;100.00
13968;BME280;39536;52.198;9.920;2023-12-20T06:09:09;100208.03;;;6.50;100.00
13968;BME280;39536;52.198;9.920;2023-12-20T06:11:36;100202.13;;;6.45;100.00
13968;BME280;39536;52.198;9.920;2023-12-20T06:14:03;100218.56;;;6.41;100.00
13968;BME280;39536;52.198;9.920;2023-12-20T06:16:29;100213.56;;;6.33;100.00
13968;BME280;39536;52.198;9.920;2023-12-20T06:18:56;100219.75;;;6.24;100.00
13968;BME280;39536;52.198;9.920;2023-12-20T06:21:23;100201.53;;;6.29;100.00
13968;BME280;39536;52.198;9.920;2023-12-20T06:23:50;100206.59;;;6.37;100.00
13968;BME280;39536;52.198;9.920;2023-12-20T06:26:16;100214.34;;;6.35;100.00
13968;BME280;39536;52.198;9.920;2023-12-20T06:28:43;100203.34;;;6.27;100.00
13968;BME280;39536;52.198;9.920;2023-12-20T06:31:09;100196.34;;;6.31;100.00
13968;BME280;39536;52.198;9.920;2023-12-20T06:33:36;100205.72;;;6.36;100.00
13968;BME280;39536;52.198;9.920;2023-12-20T06:36:03;100204.91;;;6.34;100.00
13968;BME280;39536;52.198;9.920;2023-12-20T06:38:31;100196.03;;;6.46;100.00
13968;BME280;39536;52.198;9.920;2023-12-20T06:40:58;100209.31;;;6.29;100.00
13968;BME280;39536;52.198;9.920;2023-12-20T06:43:24;100210.88;;;6.38;100.00
13968;BME280;39536;52.198;9.920;2023-12-20T06:45:51;100208.16;;;6.44;100.00
13968;BME280;39536;52.198;9.920;2023-12-20T06:48:17;100194.22;;;6.51;100.00
13968;BME280;39536;52.198;9.920;2023-12-20T06:50:44;100195.13;;;6.48;100.00
13968;BME280;39536;52.198;9.920;2023-12-20T06:53:10;100194.63;;;6.31;100.00
13968;BME280;39536;52.198;9.920;2023-12-20T06:55:37;100181.78;;;6.27;100.00
13968;BME280;39536;52.198;9.920;2023-12-20T06:58:04;100209.34;;;6.28;100.00
13968;BME280;39536;52.198;9.920;2023-12-20T07:00:32;100205.81;;;6.32;100.00
13968;BME280;39536;52.198;9.920;2023-12-20T07:02:58;100205.72;;;6.36;100.00
13968;BME280;39536;52.198;9.920;2023-12-20T07:05:25;100210.91;;;6.36;100.00
13968;BME280;39536;52.198;9.920;2023-12-20T07:07:52;100205.28;;;6.16;100.00
13968;BME280;39536;52.198;9.920;2023-12-20T07:10:18;100188.66;;;6.28;100.00
13968;BME280;39536;52.198;9.920;2023-12-20T07:12:46;100200.69;;;6.29;100.00
13968;BME280;39536;52.198;9.920;2023-12-20T07:15:14;100178.63;;;6.14;100.00
13968;BME280;39536;52.198;9.920;2023-12-20T07:17:43;100187.28;;;6.11;100.00
13968;BME280;39536;52.198;9.920;2023-12-20T07:20:11;100190.47;;;6.24;100.00
13968;BME280;39536;52.198;9.920;2023-12-20T07:22:38;100203.34;;;6.27;100.00
13968;BME280;39536;52.198;9.920;2023-12-20T07:25:06;100190.09;;;6.41;100.00
13968;BME280;39536;52.198;9.920;2023-12-20T07:27:32;100185.03;;;6.36;100.00
13968;BME280;39536;52.198;9.920;2023-12-20T07:30:00;100196.22;;;6.37;100.00
13968;BME280;39536;52.198;9.920;2023-12-20T07:32:27;100181.41;;;6.45;100.00
13968;BME280;39536;52.198;9.920;2023-12-20T07:34:53;100201.41;;;6.35;100.00
13968;BME280;39536;52.198;9.920;2023-12-20T07:37:20;100197.84;;;6.42;100.00
13968;BME280;39536;52.198;9.920;2023-12-20T07:39:47;100203.09;;;6.39;100.00
13968;BME280;39536;52.198;9.920;2023-12-20T07:42:13;100188.44;;;6.38;100.00
13968;BME280;39536;52.198;9.920;2023-12-20T07:44:40;100190.69;;;6.54;100.00
13968;BME280;39536;52.198;9.920;2023-12-20T07:47:08;100188.34;;;6.43;100.00
13968;BME280;39536;52.198;9.920;2023-12-20T07:49:35;100194.28;;;6.48;100.00
13968;BME280;39536;52.198;9.920;2023-12-20T07:52:01;100194.34;;;6.45;100.00
13968;BME280;39536;52.198;9.920;2023-12-20T07:54:28;100188.16;;;6.51;100.00
13968;BME280;39536;52.198;9.920;2023-12-20T07:56:55;100184.53;;;6.59;100.00
13968;BME280;39536;52.198;9.920;2023-12-20T07:59:21;100190.75;;;6.52;100.00
13968;BME280;39536;52.198;9.920;2023-12-20T08:01:48;100187.16;;;6.58;100.00
13968;BME280;39536;52.198;9.920;2023-12-20T08:04:16;100193.31;;;6.52;100.00
13968;BME280;39536;52.198;9.920;2023-12-20T08:06:43;100190.56;;;6.60;100.00
13968;BME280;39536;52.198;9.920;2023-12-20T08:09:09;100189.72;;;6.59;100.00
13968;BME280;39536;52.198;9.920;2023-12-20T08:11:36;100192.38;;;6.56;100.00
13968;BME280;39536;52.198;9.920;2023-12-20T08:14:02;100183.50;;;6.66;100.00
13968;BME280;39536;52.198;9.920;2023-12-20T08:16:29;100184.38;;;6.67;100.00
13968;BME280;39536;52.198;9.920;2023-12-20T08:18:56;100182.44;;;6.77;100.00
13968;BME280;39536;52.198;9.920;2023-12-20T08:21:24;100181.03;;;6.62;100.00
13968;BME280;39536;52.198;9.920;2023-12-20T08:23:50;100186.09;;;6.66;100.00
13968;BME280;39536;52.198;9.920;2023-12-20T08:26:18;100202.50;;;6.67;100.00
13968;BME280;39536;52.198;9.920;2023-12-20T08:28:46;100188.03;;;6.57;100.00
13968;BME280;39536;52.198;9.920;2023-12-20T08:31:14;100186.03;;;6.69;100.00
13968;BME280;39536;52.198;9.920;2023-12-20T08:33:41;100193.00;;;6.67;100.00
13968;BME280;39536;52.198;9.920;2023-12-20T08:36:08;100182.84;;;6.58;100.00
13968;BME280;39536;52.198;9.920;2023-12-20T08:38:36;100179.53;;;6.52;100.00
13968;BME280;39536;52.198;9.920;2023-12-20T08:41:03;100181.13;;;6.57;100.00
13968;BME280;39536;52.198;9.920;2023-12-20T08:43:30;100186.53;;;6.48;100.00
13968;BME280;39536;52.198;9.920;2023-12-20T08:45:57;100168.94;;;6.62;100.00
13968;BME280;39536;52.198;9.920;2023-12-20T08:48:23;100168.28;;;6.54;100.00
13968;BME280;39536;52.198;9.920;2023-12-20T08:50:50;100156.63;;;6.74;100.00
13968;BME280;39536;52.198;9.920;2023-12-20T08:53:17;100152.44;;;6.66;100.00
13968;BME280;39536;52.198;9.920;2023-12-20T08:55:45;100156.41;;;6.83;100.00
13968;BME280;39536;52.198;9.920;2023-12-20T08:58:12;100146.00;;;6.84;100.00
13968;BME280;39536;52.198;9.920;2023-12-20T09:00:38;100144.88;;;6.94;100.00
13968;BME280;39536;52.198;9.920;2023-12-20T09:03:05;100141.56;;;6.89;100.00
13968;BME280;39536;52.198;9.920;2023-12-20T09:05:31;100138.84;;;6.96;100.00
13968;BME280;39536;52.198;9.920;2023-12-20T09:07:58;100135.63;;;6.86;100.00
13968;BME280;39536;52.198;9.920;2023-12-20T09:10:25;100140.69;;;6.90;100.00
13968;BME280;39536;52.198;9.920;2023-12-20T09:12:53;100140.94;;;6.80;100.00
13968;BME280;39536;52.198;9.920;2023-12-20T09:15:22;100143.41;;;6.86;100.00
13968;BME280;39536;52.198;9.920;2023-12-20T09:17:49;100135.00;;;6.75;100.00
13968;BME280;39536;52.198;9.920;2023-12-20T09:20:15;100146.28;;;6.74;100.00
13968;BME280;39536;52.198;9.920;2023-12-20T09:22:42;100136.00;;;6.69;100.00
13968;BME280;39536;52.198;9.920;2023-12-20T09:25:09;100146.22;;;6.75;100.00
13968;BME280;39536;52.198;9.920;2023-12-20T09:27:36;100116.16;;;6.69;100.00
13968;BME280;39536;52.198;9.920;2023-12-20T09:30:05;100104.34;;;6.95;100.00
13968;BME280;39536;52.198;9.920;2023-12-20T09:32:32;100116.81;;;6.78;100.00
13968;BME280;39536;52.198;9.920;2023-12-20T09:34:58;100108.16;;;6.79;100.00
13968;BME280;39536;52.198;9.920;2023-12-20T09:37:25;100129.44;;;6.91;100.00
13968;BME280;39536;52.198;9.920;2023-12-20T09:39:52;100105.88;;;7.02;100.00
13968;BME280;39536;52.198;9.920;2023-12-20T09:42:24;100088.75;;;6.97;100.00
13968;BME280;39536;52.198;9.920;2023-12-20T09:44:54;100085.66;;;6.82;100.00
13968;BME280;39536;52.198;9.920;2023-12-20T09:47:23;100080.91;;;7.00;100.00
13968;BME280;39536;52.198;9.920;2023-12-20T09:49:50;100075.63;;;7.04;100.00
13968;BME280;39536;52.198;9.920;2023-12-20T09:52:18;100090.34;;;7.02;100.00
13968;BME280;39536;52.198;9.920;2023-12-20T09:54:47;100070.38;;;7.06;100.00
13968;BME280;39536;52.198;9.920;2023-12-20T09:57:16;100086.94;;;7.00;100.00
13968;BME280;39536;52.198;9.920;2023-12-20T09:59:42;100086.00;;;7.03;100.00
13968;BME280;39536;52.198;9.920;2023-12-20T10:02:12;100096.97;;;7.12;100.00
13968;BME280;39536;52.198;9.920;2023-12-20T10:04:45;100066.78;;;7.11;100.00
13968;BME280;39536;52.198;9.920;2023-12-20T10:07:12;100072.59;;;7.21;100.00
13968;BME280;39536;52.198;9.920;2023-12-20T10:09:44;100069.84;;;7.26;100.00
13968;BME280;39536;52.198;9.920;2023-12-20T10:12:12;100074.16;;;7.27;100.00
13968;BME280;39536;52.198;9.920;2023-12-20T10:15:05;100055.22;;;7.25;100.00
13968;BME280;39536;52.198;9.920;2023-12-20T10:17:37;100057.78;;;7.26;100.00
13968;BME280;39536;52.198;9.920;2023-12-20T10:20:12;100073.34;;;7.25;100.00
13968;BME280;39536;52.198;9.920;2023-12-20T10:22:52;100077.00;;;7.17;100.00
13968;BME280;39536;52.198;9.920;2023-12-20T10:25:20;100064.75;;;7.23;100.00
13968;BME280;39536;52.198;9.920;2023-12-20T10:28:19;100046.84;;;7.15;100.00
13968;BME280;39536;52.198;9.920;2023-12-20T10:30:52;100053.53;;;7.24;100.00
13968;BME280;39536;52.198;9.920;2023-12-20T10:33:31;100054.75;;;7.10;100.00
13968;BME280;39536;52.198;9.920;2023-12-20T10:36:09;100047.53;;;7.22;100.00
13968;BME280;39536;52.198;9.920;2023-12-20T10:38:38;100046.91;;;7.13;100.00
13968;BME280;39536;52.198;9.920;2023-12-20T10:41:08;100048.59;;;7.14;100.00
13968;BME280;39536;52.198;9.920;2023-12-20T10:43:36;100049.94;;;7.28;100.00
13968;BME280;39536;52.198;9.920;2023-12-20T10:46:03;100042.78;;;7.37;100.00
13968;BME280;39536;52.198;9.920;2023-12-20T10:48:32;100043.44;;;7.46;100.00
13968;BME280;39536;52.198;9.920;2023-12-20T10:50:59;100054.97;;;7.34;100.00
13968;BME280;39536;52.198;9.920;2023-12-20T10:53:27;100029.75;;;7.40;100.00
13968;BME280;39536;52.198;9.920;2023-12-20T10:55:55;100066.19;;;7.34;100.00
13968;BME280;39536;52.198;9.920;2023-12-20T10:58:24;100043.38;;;7.47;100.00
13968;BME280;39536;52.198;9.920;2023-12-20T11:00:55;100024.81;;;7.31;100.00
13968;BME280;39536;52.198;9.920;2023-12-20T11:03:27;100044.84;;;7.25;100.00
13968;BME280;39536;52.198;9.920;2023-12-20T11:06:00;100016.34;;;7.26;100.00
13968;BME280;39536;52.198;9.920;2023-12-20T11:08:33;100031.19;;;7.20;100.00
13968;BME280;39536;52.198;9.920;2023-12-20T11:11:05;99987.03;;;7.24;100.00
13968;BME280;39536;52.198;9.920;2023-12-20T11:13:36;100042.16;;;7.29;100.00
13968;BME280;39536;52.198;9.920;2023-12-20T11:16:04;100044.16;;;7.20;100.00
13968;BME280;39536;52.198;9.920;2023-12-20T11:18:31;100035.63;;;7.14;100.00
13968;BME280;39536;52.198;9.920;2023-12-20T11:21:02;100038.47;;;7.05;100.00
13968;BME280;39536;52.198;9.920;2023-12-20T11:23:29;100032.78;;;6.91;100.00
13968;BME280;39536;52.198;9.920;2023-12-20T11:25:56;100037.88;;;6.96;100.00
13968;BME280;39536;52.198;9.920;2023-12-20T11:28:24;100036.94;;;6.98;100.00
13968;BME280;39536;52.198;9.920;2023-12-20T11:30:52;100034.22;;;7.03;100.00
13968;BME280;39536;52.198;9.920;2023-12-20T11:33:23;100023.41;;;6.87;100.00
13968;BME280;39536;52.198;9.920;2023-12-20T11:35:51;100035.59;;;6.83;100.00
13968;BME280;39536;52.198;9.920;2023-12-20T11:38:21;100032.06;;;6.86;100.00
13968;BME280;39536;52.198;9.920;2023-12-20T11:40:48;100031.34;;;6.81;100.00
13968;BME280;39536;52.198;9.920;2023-12-20T11:43:29;100028.72;;;6.82;100.00
13968;BME280;39536;52.198;9.920;2023-12-20T11:46:02;100036.66;;;6.75;100.00
13968;BME280;39536;52.198;9.920;2023-12-20T11:48:30;100023.50;;;6.84;100.00
13968;BME280;39536;52.198;9.920;2023-12-20T11:50:57;100022.50;;;6.89;100.00
13968;BME280;39536;52.198;9.920;2023-12-20T11:53:25;100014.81;;;6.86;100.00
13968;BME280;39536;52.198;9.920;2023-12-20T11:55:51;100045.16;;;6.80;100.00
13968;BME280;39536;52.198;9.920;2023-12-20T11:58:18;100020.88;;;6.85;100.00
13968;BME280;39536;52.198;9.920;2023-12-20T12:00:44;100023.34;;;6.88;100.00
13968;BME280;39536;52.198;9.920;2023-12-20T12:03:14;100022.75;;;6.79;100.00
13968;BME280;39536;52.198;9.920;2023-12-20T12:05:41;100032.31;;;6.77;100.00
13968;BME280;39536;52.198;9.920;2023-12-20T12:08:07;100047.16;;;6.68;100.00
13968;BME280;39536;52.198;9.920;2023-12-20T12:10:35;100098.16;;;6.65;100.00
13968;BME280;39536;52.198;9.920;2023-12-20T12:13:03;100122.81;;;6.02;100.00
13968;BME280;39536;52.198;9.920;2023-12-20T12:15:29;100142.00;;;5.44;100.00
13968;BME280;39536;52.198;9.920;2023-12-20T12:17:56;100094.25;;;5.17;100.00
13968;BME280;39536;52.198;9.920;2023-12-20T12:20:24;100079.09;;;5.00;100.00
13968;BME280;39536;52.198;9.920;2023-12-20T12:23:00;100020.09;;;4.78;100.00
13968;BME280;39536;52.198;9.920;2023-12-20T12:25:28;100053.63;;;4.78;100.00
13968;BME280;39536;52.198;9.920;2023-12-20T12:27:57;100068.38;;;4.70;100.00
13968;BME280;39536;52.198;9.920;2023-12-20T12:30:24;100071.06;;;4.64;100.00
13968;BME280;39536;52.198;9.920;2023-12-20T12:32:51;100054.72;;;4.65;100.00
13968;BME280;39536;52.198;9.920;2023-12-20T12:35:18;100066.78;;;4.65;100.00
13968;BME280;39536;52.198;9.920;2023-12-20T12:37:45;100083.25;;;4.56;100.00
13968;BME280;39536;52.198;9.920;2023-12-20T12:40:13;100060.81;;;4.59;100.00
13968;BME280;39536;52.198;9.920;2023-12-20T12:42:41;100035.88;;;4.61;100.00
13968;BME280;39536;52.198;9.920;2023-12-20T12:45:10;100030.63;;;4.68;100.00
13968;BME280;39536;52.198;9.920;2023-12-20T12:47:37;100042.53;;;4.75;100.00
13968;BME280;39536;52.198;9.920;2023-12-20T12:50:05;100054.22;;;4.96;100.00
13968;BME280;39536;52.198;9.920;2023-12-20T12:52:31;100049.16;;;4.88;100.00